createdAt,value
2023-04-05T00:01:51.257Z,5.95
2023-04-05T00:04:21.249Z,6.65
2023-04-05T00:06:52.894Z,5.50
2023-04-05T00:09:25.163Z,5.43
2023-04-05T00:11:54.410Z,6.25
2023-04-05T00:14:25.046Z,5.57
2023-04-05T00:16:54.184Z,5.32
2023-04-05T00:19:23.706Z,6.45
2023-04-05T00:21:54.766Z,5.10
2023-04-05T00:24:24.620Z,6.15
2023-04-05T00:26:53.685Z,5.70
2023-04-05T00:29:22.806Z,6.55
2023-04-05T00:31:52.324Z,5.72
2023-04-05T00:34:21.602Z,5.95
2023-04-05T00:36:50.825Z,6.65
2023-04-05T00:39:23.689Z,5.63
2023-04-05T00:41:53.089Z,5.55
2023-04-05T00:44:22.502Z,5.70
2023-04-05T00:46:52.421Z,5.93
2023-04-05T00:49:21.617Z,6.63
2023-04-05T00:51:52.431Z,6.05
2023-04-05T00:54:21.934Z,6.22
2023-04-05T00:56:53.484Z,7.50
2023-04-05T00:59:22.954Z,5.32
2023-04-05T01:01:57.824Z,6.18
2023-04-05T01:04:30.777Z,6.30
2023-04-05T01:07:08.819Z,6.20
2023-04-05T01:09:49.535Z,5.68
2023-04-05T01:12:22.485Z,5.97
2023-04-05T01:14:53.227Z,6.35
2023-04-05T01:17:24.747Z,6.57
2023-04-05T01:19:59.422Z,6.28
2023-04-05T01:23:04.187Z,5.90
2023-04-05T01:26:16.801Z,6.13
2023-04-05T01:29:09.993Z,6.55
2023-04-05T01:31:46.383Z,5.90
2023-04-05T01:34:25.882Z,5.88
2023-04-05T01:36:58.043Z,6.65
2023-04-05T01:39:31.358Z,6.07
2023-04-05T01:42:01.354Z,5.57
2023-04-05T01:44:30.855Z,6.43
2023-04-05T01:47:01.220Z,6.63
2023-04-05T01:49:33.185Z,6.47
2023-04-05T01:52:02.337Z,5.53
2023-04-05T01:54:31.558Z,5.97
2023-04-05T01:57:01.063Z,7.38
2023-04-05T01:59:30.327Z,6.55
2023-04-05T02:02:03.006Z,6.28
2023-04-05T02:04:32.192Z,6.35
2023-04-05T02:07:01.688Z,6.65
2023-04-05T02:09:30.742Z,6.18
2023-04-05T02:11:59.775Z,6.88
2023-04-05T02:14:29.062Z,6.50
2023-04-05T02:16:58.785Z,6.78
2023-04-05T02:19:30.045Z,7.50
2023-04-05T02:21:59.498Z,6.80
2023-04-05T02:24:28.953Z,6.90
2023-04-05T02:26:58.135Z,7.53
2023-04-05T02:29:27.654Z,7.30
2023-04-05T02:31:57.266Z,7.18
2023-04-05T02:34:27.395Z,7.50
2023-04-05T02:36:59.056Z,7.20
2023-04-05T02:39:29.548Z,6.97
2023-04-05T02:41:59.258Z,6.85
2023-04-05T02:44:29.632Z,7.05
2023-04-05T02:46:59.038Z,7.65
2023-04-05T02:49:33.295Z,6.07
2023-04-05T02:52:06.895Z,6.68
2023-04-05T02:54:36.914Z,7.28
2023-04-05T02:57:05.991Z,6.70
2023-04-05T02:59:45.733Z,7.88
2023-04-05T03:02:14.982Z,6.68
2023-04-05T03:04:46.756Z,7.80
2023-04-05T03:07:20.308Z,7.53
2023-04-05T03:09:51.562Z,7.03
2023-04-05T03:12:24.989Z,6.60
2023-04-05T03:14:54.676Z,7.20
2023-04-05T03:17:28.617Z,6.93
2023-04-05T03:20:06.606Z,7.07
2023-04-05T03:22:37.484Z,7.25
2023-04-05T03:25:10.303Z,6.78
2023-04-05T03:27:46.113Z,7.32
2023-04-05T03:30:18.827Z,7.28
2023-04-05T03:32:57.445Z,8.13
2023-04-05T03:35:47.612Z,8.27
2023-04-05T03:38:19.120Z,6.88
2023-04-05T03:41:19.974Z,7.05
2023-04-05T03:43:50.181Z,7.07
2023-04-05T03:46:24.449Z,7.47
2023-04-05T03:48:55.851Z,7.20
2023-04-05T03:51:24.996Z,8.02
2023-04-05T03:53:55.653Z,7.80
2023-04-05T03:56:28.906Z,7.28
2023-04-05T03:58:59.898Z,7.82
2023-04-05T04:01:31.327Z,7.53
2023-04-05T04:04:00.944Z,7.30
2023-04-05T04:06:32.715Z,8.25
2023-04-05T04:09:07.922Z,7.85
2023-04-05T04:11:36.717Z,8.70
2023-04-05T04:14:07.525Z,9.05
2023-04-05T04:17:02.366Z,8.73
2023-04-05T04:19:55.849Z,7.50
2023-04-05T04:22:45.925Z,7.53
2023-04-05T04:25:46.205Z,7.78
2023-04-05T04:28:39.271Z,8.57
2023-04-05T04:31:34.604Z,8.40
2023-04-05T04:34:26.662Z,7.50
2023-04-05T04:37:22.600Z,8.50
2023-04-05T04:40:12.482Z,7.72
2023-04-05T04:43:00.251Z,7.88
2023-04-05T04:46:00.129Z,7.35
2023-04-05T04:48:42.149Z,7.45
2023-04-05T04:51:26.232Z,8.40
2023-04-05T04:53:55.293Z,8.55
2023-04-05T04:56:24.138Z,8.15
2023-04-05T04:58:57.114Z,9.07
2023-04-05T05:01:26.736Z,10.90
2023-04-05T05:03:55.658Z,9.85
2023-04-05T05:06:31.446Z,11.63
2023-04-05T05:09:00.171Z,11.50
2023-04-05T05:11:30.220Z,11.82
2023-04-05T05:14:03.579Z,11.70
2023-04-05T05:16:34.612Z,11.43
2023-04-05T05:19:03.484Z,18.52
2023-04-05T05:21:41.834Z,24.55
2023-04-05T05:24:11.807Z,30.35
2023-04-05T05:26:40.749Z,73.72
2023-04-05T05:29:13.335Z,79.72
2023-04-05T05:34:17.486Z,75.95
2023-04-05T05:36:51.633Z,71.13
2023-04-05T05:39:20.654Z,50.55
2023-04-05T05:41:49.346Z,45.95
2023-04-05T05:44:19.451Z,40.22
2023-04-05T05:46:48.414Z,35.95
2023-04-05T05:49:18.877Z,23.67
2023-04-05T05:51:47.610Z,21.60
2023-04-05T05:54:16.340Z,17.90
2023-04-05T05:56:45.186Z,18.45
2023-04-05T05:59:14.057Z,14.38
2023-04-05T06:01:46.724Z,15.63
2023-04-05T06:04:22.944Z,13.60
2023-04-05T06:06:51.803Z,16.27
2023-04-05T06:09:20.466Z,11.27
2023-04-05T06:11:56.348Z,9.55
2023-04-05T06:14:26.463Z,9.77
2023-04-05T06:16:56.592Z,8.65
2023-04-05T06:19:25.443Z,8.32
2023-04-05T06:21:55.116Z,9.15
2023-04-05T06:24:23.975Z,9.00
2023-04-05T06:26:53.006Z,9.30
2023-04-05T06:29:21.791Z,8.75
2023-04-05T06:31:51.199Z,9.02
2023-04-05T06:34:23.964Z,8.95
2023-04-05T06:36:52.851Z,11.45
2023-04-05T06:39:21.761Z,9.30
2023-04-05T06:41:50.424Z,9.18
2023-04-05T06:44:22.691Z,9.15
2023-04-05T06:46:53.621Z,9.25
2023-04-05T06:49:23.786Z,8.73
2023-04-05T06:51:52.619Z,9.73
2023-04-05T06:54:25.008Z,9.63
2023-04-05T06:56:57.391Z,9.20
2023-04-05T06:59:27.505Z,9.80
2023-04-05T07:01:56.522Z,9.05
2023-04-05T07:04:29.450Z,7.97
2023-04-05T07:06:58.812Z,8.38
2023-04-05T07:09:30.277Z,8.48
2023-04-05T07:11:58.976Z,8.27
2023-04-05T07:14:27.707Z,7.93
2023-04-05T07:16:56.685Z,7.55
2023-04-05T07:19:27.366Z,8.93
2023-04-05T07:21:56.804Z,8.65
2023-04-05T07:24:25.778Z,8.50
2023-04-05T07:26:55.081Z,8.57
2023-04-05T07:29:23.927Z,8.20
2023-04-05T07:31:52.733Z,8.35
2023-04-05T07:34:21.429Z,8.98
2023-04-05T07:36:51.512Z,7.50
2023-04-05T07:39:21.380Z,7.88
2023-04-05T07:41:51.705Z,7.47
2023-04-05T07:44:24.416Z,7.03
2023-04-05T07:46:53.218Z,7.35
2023-04-05T07:49:27.298Z,7.78
2023-04-05T07:51:57.854Z,7.53
2023-04-05T07:54:26.870Z,8.32
2023-04-05T07:56:58.183Z,8.63
2023-04-05T07:59:27.113Z,7.30
2023-04-05T08:01:57.219Z,7.28
2023-04-05T08:04:30.953Z,7.57
2023-04-05T08:07:01.367Z,7.32
2023-04-05T08:09:30.162Z,7.90
2023-04-05T08:11:58.820Z,7.18
2023-04-05T08:14:27.510Z,7.38
2023-04-05T08:16:58.827Z,7.05
2023-04-05T08:19:27.753Z,7.18
2023-04-05T08:21:56.502Z,8.40
2023-04-05T08:24:26.737Z,6.97
2023-04-05T08:26:56.342Z,6.45
2023-04-05T08:29:27.756Z,6.78
2023-04-05T08:31:57.907Z,6.63
2023-04-05T08:34:26.920Z,6.85
2023-04-05T08:37:00.194Z,7.28
2023-04-05T08:39:30.828Z,6.70
2023-04-05T08:42:05.533Z,6.45
2023-04-05T08:44:38.985Z,7.40
2023-04-05T08:47:10.369Z,7.25
2023-04-05T08:49:39.203Z,7.22
2023-04-05T08:52:08.043Z,6.07
2023-04-05T08:54:40.754Z,6.05
2023-04-05T08:57:10.761Z,6.63
2023-04-05T08:59:40.842Z,6.78
2023-04-05T09:02:16.372Z,5.53
2023-04-05T09:04:49.614Z,5.97
2023-04-05T09:07:19.203Z,6.43
2023-04-05T09:09:57.160Z,6.40
2023-04-05T09:12:26.917Z,5.50
2023-04-05T09:14:59.962Z,5.75
2023-04-05T09:17:30.102Z,6.05
2023-04-05T09:19:58.786Z,5.10
2023-04-05T09:22:30.025Z,4.60
2023-04-05T09:25:01.275Z,5.72
2023-04-05T09:27:29.995Z,5.13
2023-04-05T09:30:01.403Z,5.20
2023-04-05T09:32:30.398Z,5.22
2023-04-05T09:35:04.121Z,4.68
2023-04-05T09:37:35.780Z,4.72
2023-04-05T09:40:07.618Z,4.70
2023-04-05T09:42:46.229Z,5.68
2023-04-05T09:45:16.259Z,4.97
2023-04-05T09:47:56.639Z,4.95
2023-04-05T09:50:25.548Z,5.07
2023-04-05T09:53:08.855Z,5.88
2023-04-05T09:55:40.677Z,5.20
2023-04-05T09:58:13.621Z,5.07
2023-04-05T10:00:59.925Z,5.68
2023-04-05T10:03:32.081Z,5.22
2023-04-05T10:06:01.191Z,5.43
2023-04-05T10:08:30.181Z,5.95
2023-04-05T10:11:02.661Z,6.05
2023-04-05T10:13:31.743Z,6.07
2023-04-05T10:16:03.666Z,5.30
2023-04-05T10:18:41.627Z,5.38
2023-04-05T10:21:12.819Z,5.65
2023-04-05T10:23:45.985Z,5.45
2023-04-05T10:28:57.499Z,5.57
2023-04-05T10:31:37.578Z,5.53
2023-04-05T10:34:08.560Z,6.15
2023-04-05T10:36:43.426Z,5.97
2023-04-05T10:39:24.106Z,7.53
2023-04-05T10:41:57.960Z,5.53
2023-04-05T10:44:27.404Z,6.40
2023-04-05T10:46:58.244Z,6.60
2023-04-05T10:49:35.637Z,4.85
2023-04-05T10:52:05.280Z,5.88
2023-04-05T10:54:36.762Z,5.80
2023-04-05T10:57:11.931Z,6.38
2023-04-05T10:59:44.109Z,6.00
2023-04-05T11:02:13.534Z,6.15
2023-04-05T11:04:44.970Z,5.93
2023-04-05T11:07:15.532Z,5.60
2023-04-05T11:09:57.154Z,5.30
2023-04-05T11:13:03.076Z,6.32
2023-04-05T11:15:34.835Z,6.68
2023-04-05T11:18:05.789Z,6.38
2023-04-05T11:20:42.748Z,5.80
2023-04-05T11:23:12.458Z,6.13
2023-04-05T11:25:42.224Z,6.38
2023-04-05T11:28:24.126Z,5.63
2023-04-05T11:30:57.073Z,6.45
2023-04-05T11:36:07.614Z,6.60
2023-04-05T11:38:40.989Z,5.83
2023-04-05T11:41:17.566Z,5.72
2023-04-05T11:43:47.569Z,5.63
2023-04-05T11:46:18.446Z,6.40
2023-04-05T11:48:50.659Z,6.25
2023-04-05T11:51:23.816Z,6.30
2023-04-05T11:53:52.612Z,5.63
2023-04-05T11:56:21.367Z,6.03
2023-04-05T11:58:50.136Z,5.60
2023-04-05T12:01:22.937Z,5.60
2023-04-05T12:03:55.602Z,6.15
2023-04-05T12:06:26.138Z,5.28
2023-04-05T12:08:56.194Z,5.72
2023-04-05T12:11:27.256Z,6.28
2023-04-05T12:13:58.631Z,6.30
2023-04-05T12:16:29.165Z,7.38
2023-04-05T12:18:59.366Z,6.82
2023-04-05T12:21:28.826Z,6.97
2023-04-05T12:23:57.995Z,6.47
2023-04-05T12:26:27.017Z,6.60
2023-04-05T12:28:56.993Z,6.85
2023-04-05T12:31:41.454Z,6.50
2023-04-05T12:34:11.583Z,5.85
2023-04-05T12:36:40.847Z,6.60
2023-04-05T12:39:11.014Z,6.88
2023-04-05T12:41:40.189Z,7.28
2023-04-05T12:44:16.008Z,6.35
2023-04-05T12:46:47.429Z,6.82
2023-04-05T12:49:17.459Z,6.85
2023-04-05T12:51:47.303Z,6.18
2023-04-05T12:54:16.840Z,6.35
2023-04-05T12:56:45.626Z,6.75
2023-04-05T12:59:14.437Z,6.63
2023-04-05T13:01:43.170Z,7.03
2023-04-05T13:04:16.566Z,7.38
2023-04-05T13:06:48.169Z,6.72
2023-04-05T13:09:17.323Z,6.05
2023-04-05T13:11:46.155Z,7.38
2023-04-05T13:14:15.519Z,6.05
2023-04-05T13:16:44.255Z,7.15
2023-04-05T13:19:14.474Z,7.35
2023-04-05T13:21:43.235Z,6.47
2023-04-05T13:24:13.007Z,7.78
2023-04-05T13:26:41.964Z,7.07
2023-04-05T13:29:10.704Z,7.15
2023-04-05T13:31:40.912Z,7.30
2023-04-05T13:34:09.785Z,8.00
2023-04-05T13:36:39.921Z,8.20
2023-04-05T13:39:08.676Z,7.85
2023-04-05T13:41:37.438Z,8.10
2023-04-05T13:44:06.819Z,6.97
2023-04-05T13:46:35.909Z,6.97
2023-04-05T13:49:04.702Z,7.68
2023-04-05T13:51:34.525Z,7.63
2023-04-05T13:54:05.068Z,7.07
2023-04-05T13:56:34.042Z,7.10
2023-04-05T13:59:02.951Z,8.20
2023-04-05T14:01:35.779Z,9.07
2023-04-05T14:04:04.546Z,9.02
2023-04-05T14:06:35.856Z,7.78
2023-04-05T14:09:06.115Z,8.13
2023-04-05T14:11:35.374Z,7.22
2023-04-05T14:14:04.596Z,8.73
2023-04-05T14:16:33.598Z,7.78
2023-04-05T14:19:02.669Z,7.53
2023-04-05T14:21:31.775Z,7.97
2023-04-05T14:24:00.690Z,9.30
2023-04-05T14:26:31.230Z,7.80
2023-04-05T14:29:00.160Z,9.20
2023-04-05T14:31:29.386Z,8.77
2023-04-05T14:34:00.920Z,7.88
2023-04-05T14:36:29.813Z,8.60
2023-04-05T14:38:58.630Z,9.70
2023-04-05T14:41:28.249Z,7.82
2023-04-05T14:43:58.520Z,8.77
2023-04-05T14:46:27.350Z,9.52
2023-04-05T14:48:56.197Z,9.27
2023-04-05T14:51:25.171Z,9.07
2023-04-05T14:53:54.014Z,8.90
2023-04-05T14:56:25.893Z,9.73
2023-04-05T14:58:54.672Z,8.38
2023-04-05T15:01:24.884Z,10.32
2023-04-05T15:03:53.979Z,9.15
2023-04-05T15:06:22.909Z,9.43
2023-04-05T15:08:52.338Z,10.55
2023-04-05T15:11:21.750Z,9.40
2023-04-05T15:13:50.588Z,10.05
2023-04-05T15:16:19.451Z,9.70
2023-04-05T15:18:52.037Z,10.07
2023-04-05T15:21:21.064Z,9.65
2023-04-05T15:23:52.090Z,10.32
2023-04-05T15:26:21.013Z,10.65
2023-04-05T15:28:53.005Z,10.38
2023-04-05T15:31:24.119Z,10.48
2023-04-05T15:33:54.341Z,10.55
2023-04-05T15:36:23.106Z,9.60
2023-04-05T15:38:51.920Z,9.35
2023-04-05T15:41:20.777Z,9.95
2023-04-05T15:43:49.619Z,11.25
2023-04-05T15:46:18.543Z,9.43
2023-04-05T15:48:47.379Z,9.18
2023-04-05T15:51:17.590Z,10.18
2023-04-05T15:53:46.643Z,9.95
2023-04-05T15:56:15.453Z,12.45
2023-04-05T15:58:44.269Z,10.80
2023-04-05T16:01:13.183Z,10.27
2023-04-05T16:03:42.758Z,11.25
2023-04-05T16:06:18.368Z,10.50
2023-04-05T16:08:47.169Z,10.75
2023-04-05T16:11:16.024Z,10.80
2023-04-05T16:13:47.201Z,11.00
2023-04-05T16:16:29.841Z,10.52
2023-04-05T16:19:08.122Z,12.88
2023-04-05T16:21:38.519Z,11.57
2023-04-05T16:24:07.912Z,10.65
2023-04-05T16:26:36.830Z,11.20
2023-04-05T16:29:05.762Z,25.30
2023-04-05T16:31:35.834Z,14.48
2023-04-05T16:34:04.784Z,12.13
2023-04-05T16:36:33.691Z,11.50
2023-04-05T16:39:04.265Z,11.10
2023-04-05T16:41:34.718Z,11.52
2023-04-05T16:44:03.793Z,10.65
2023-04-05T16:46:47.538Z,11.13
2023-04-05T16:49:16.925Z,11.23
2023-04-05T16:51:45.740Z,10.02
2023-04-05T16:54:16.709Z,11.80
2023-04-05T16:56:45.536Z,11.35
2023-04-05T16:59:14.385Z,10.50
2023-04-05T17:01:43.319Z,11.82
2023-04-05T17:04:12.234Z,10.82
2023-04-05T17:06:40.934Z,12.30
2023-04-05T17:09:11.996Z,16.60
2023-04-05T17:11:44.425Z,17.92
2023-04-05T17:14:13.305Z,20.27
2023-04-05T17:16:42.627Z,20.45
2023-04-05T17:19:13.791Z,17.27
2023-04-05T17:21:45.142Z,20.25
2023-04-05T17:24:14.022Z,18.75
2023-04-05T17:26:44.198Z,19.88
2023-04-05T17:29:13.674Z,18.90
2023-04-05T17:31:44.102Z,19.92
2023-04-05T17:34:15.073Z,19.73
2023-04-05T17:36:45.126Z,21.05
2023-04-05T17:39:14.023Z,19.60
2023-04-05T17:41:46.890Z,20.15
2023-04-05T17:44:19.061Z,20.77
2023-04-05T17:46:57.326Z,19.10
2023-04-05T17:49:36.446Z,19.02
2023-04-05T17:52:05.605Z,20.50
2023-04-05T17:54:37.148Z,20.73
2023-04-05T17:57:15.095Z,21.05
2023-04-05T17:59:44.884Z,21.13
2023-04-05T18:02:14.122Z,20.45
2023-04-05T18:04:45.986Z,19.15
2023-04-05T18:07:14.880Z,20.58
2023-04-05T18:09:46.546Z,19.88
2023-04-05T18:12:16.872Z,19.70
2023-04-05T18:14:45.841Z,20.88
2023-04-05T18:17:14.827Z,20.55
2023-04-05T18:19:43.839Z,22.23
2023-04-05T18:22:12.760Z,20.80
2023-04-05T18:24:42.482Z,21.65
2023-04-05T18:27:11.945Z,21.83
2023-04-05T18:29:42.861Z,21.38
2023-04-05T18:32:12.111Z,20.50
2023-04-05T18:34:41.539Z,22.23
2023-04-05T18:37:11.055Z,21.75
2023-04-05T18:39:40.165Z,20.58
2023-04-05T18:42:09.195Z,22.13
2023-04-05T18:44:38.004Z,21.30
2023-04-05T18:47:08.160Z,21.45
2023-04-05T18:49:37.151Z,22.13
2023-04-05T18:52:05.923Z,21.52
2023-04-05T18:54:34.738Z,22.10
2023-04-05T18:57:03.527Z,21.70
2023-04-05T18:59:32.332Z,22.33
2023-04-05T19:02:01.168Z,20.95
2023-04-05T19:04:31.986Z,21.48
2023-04-05T19:07:00.830Z,21.73
2023-04-05T19:09:29.649Z,25.00
2023-04-05T19:11:58.771Z,21.17
2023-04-05T19:14:31.318Z,21.23
2023-04-05T19:17:00.188Z,23.15
2023-04-05T19:19:31.056Z,22.48
2023-04-05T19:21:59.837Z,22.30
2023-04-05T19:24:29.703Z,20.48
2023-04-05T19:26:58.636Z,22.65
2023-04-05T19:29:27.433Z,23.50
2023-04-05T19:31:57.228Z,21.88
2023-04-05T19:34:26.503Z,22.58
2023-04-05T19:36:57.587Z,23.02
2023-04-05T19:39:26.380Z,22.77
2023-04-05T19:41:56.224Z,23.27
2023-04-05T19:44:50.804Z,22.25
2023-04-05T19:47:21.163Z,22.42
2023-04-05T19:49:51.300Z,22.10
2023-04-05T19:52:39.184Z,23.23
2023-04-05T19:55:32.332Z,23.95
2023-04-05T19:58:02.821Z,23.00
2023-04-05T20:00:37.281Z,23.10
2023-04-05T20:03:28.759Z,21.70
2023-04-05T20:06:08.868Z,22.13
2023-04-05T20:08:40.802Z,22.48
2023-04-05T20:11:11.904Z,22.23
2023-04-05T20:13:45.173Z,27.60
2023-04-05T20:16:16.747Z,103.03
2023-04-05T20:18:49.273Z,75.22
2023-04-05T20:21:19.214Z,34.42
2023-04-05T20:23:50.711Z,35.13
2023-04-05T20:26:26.426Z,22.67
2023-04-05T20:28:56.274Z,22.00
2023-04-05T20:31:29.568Z,23.85
2023-04-05T20:34:00.005Z,23.50
2023-04-05T20:36:33.365Z,22.83
2023-04-05T20:41:33.161Z,22.38
2023-04-05T20:44:02.238Z,23.40
2023-04-05T20:46:32.436Z,21.80
2023-04-05T20:49:04.341Z,23.42
2023-04-05T20:51:36.464Z,25.10
2023-04-05T20:54:09.135Z,23.70
2023-04-05T20:56:38.055Z,23.60
2023-04-05T20:59:07.235Z,23.25
2023-04-05T21:01:38.736Z,22.95
2023-04-05T21:04:07.702Z,22.35
2023-04-05T21:06:37.570Z,22.52
2023-04-05T21:09:08.591Z,23.50
2023-04-05T21:11:37.776Z,24.60
2023-04-05T21:14:06.719Z,24.38
2023-04-05T21:16:37.885Z,24.27
2023-04-05T21:19:06.994Z,24.60
2023-04-05T21:21:36.220Z,25.65
2023-04-05T21:24:05.219Z,25.80
2023-04-05T21:26:35.429Z,27.92
2023-04-05T21:29:07.085Z,27.05
2023-04-05T21:31:38.584Z,28.58
2023-04-05T21:34:07.441Z,23.75
2023-04-05T21:36:36.245Z,25.60
2023-04-05T21:39:05.518Z,26.92
2023-04-05T21:41:35.736Z,27.40
2023-04-05T21:44:07.148Z,26.55
2023-04-05T21:46:35.998Z,27.98
2023-04-05T21:49:05.882Z,27.27
2023-04-05T21:51:34.804Z,27.25
2023-04-05T21:54:03.589Z,29.38
2023-04-05T21:56:32.503Z,27.33
2023-04-05T21:59:02.726Z,27.52
2023-04-05T22:01:31.604Z,29.30
2023-04-05T22:04:00.345Z,28.38
2023-04-05T22:06:29.335Z,28.75
2023-04-05T22:08:58.112Z,27.27
2023-04-05T22:11:27.598Z,28.00
2023-04-05T22:13:58.672Z,27.17
2023-04-05T22:16:28.913Z,28.27
2023-04-05T22:18:58.021Z,29.45
2023-04-05T22:21:27.001Z,26.63
2023-04-05T22:23:55.932Z,27.92
2023-04-05T22:26:24.782Z,28.88
2023-04-05T22:28:53.582Z,29.38
2023-04-05T22:31:22.457Z,28.85
2023-04-05T22:33:54.794Z,28.52
2023-04-05T22:36:23.731Z,28.42
2023-04-05T22:38:54.277Z,28.33
2023-04-05T22:41:23.430Z,30.55
2023-04-05T22:43:54.615Z,33.45
2023-04-05T22:46:23.481Z,31.30
2023-04-05T22:48:56.271Z,31.92
2023-04-05T22:51:27.702Z,29.33
2023-04-05T22:53:56.564Z,29.20
2023-04-05T22:56:27.708Z,30.17
2023-04-05T22:58:56.665Z,29.80
2023-04-05T23:01:25.769Z,31.48
2023-04-05T23:03:55.987Z,29.67
2023-04-05T23:06:27.856Z,32.78
2023-04-05T23:08:58.540Z,30.25
2023-04-05T23:11:29.800Z,27.30
2023-04-05T23:14:01.141Z,29.52
2023-04-05T23:16:32.958Z,28.73
2023-04-05T23:19:05.921Z,26.77
2023-04-05T23:21:34.795Z,25.40
2023-04-05T23:24:07.199Z,24.98
2023-04-05T23:26:36.293Z,23.95
2023-04-05T23:29:07.792Z,22.95
2023-04-05T23:31:36.915Z,22.33
2023-04-05T23:34:09.570Z,19.45
2023-04-05T23:36:38.793Z,18.33
2023-04-05T23:39:07.970Z,16.15
2023-04-05T23:41:39.274Z,16.75
2023-04-05T23:44:08.240Z,18.05
2023-04-05T23:46:37.139Z,18.77
2023-04-05T23:49:06.481Z,18.27
2023-04-05T23:51:39.026Z,17.65
2023-04-05T23:54:10.332Z,16.65
2023-04-05T23:56:39.768Z,19.08
2023-04-05T23:59:08.765Z,16.80
